Currently N/A°F in Beaumont, California, USA
N/A°F Alert
65°F / 65°F
N/A
0.00"
Saturday, January 16, 2021 6:58 PM PST

Beaumont, California Weather Summary
Last 36 Hours

Temperature Winds Hourly Humidity Dewpoint
Time Report Norm Report Norm Max Gusts Precip. Rpt. Norm Rpt. Norm Pressure
1,2Sat 12:00 AM  65.5°F  49°F  calm  3 mph  none  0.00"  11%  51%  7°F  31°F  30.03"
Fri 11:00 PM  65.5°F  49°F  calm  3 mph  none  0.00"  12%  51%  9°F  31°F  30.04"
Fri 10:00 PM  66.6°F  49°F  calm  3 mph  none  0.00"  11%  50%  8°F  31°F  30.05"
Fri 09:00 PM  67.3°F  50°F  calm  3 mph  none  0.00"  13%  50%  13°F  31°F  30.06"
Fri 08:00 PM  66.2°F  50°F  calm  3 mph  none  0.00"  14%  50%  13°F  32°F  30.07"
Fri 07:00 PM  66.7°F  51°F  calm  3 mph  1 mph  0.00"  14%  49%  14°F  32°F  30.07"
Fri 06:00 PM  68.5°F  51°F  calm  3 mph  7 mph  0.00"  12%  49%  12°F  32°F  30.08"
Fri 05:00 PM  69.1°F  53°F  calm  3 mph  none  0.00"  14%  48%  16°F  33°F  30.08"
Fri 04:00 PM  73.2°F  55°F  calm  4 mph  10 mph  0.00"  11%  44%  13°F  33°F  30.09"
Fri 03:00 PM  74.5°F  57°F  calm  5 mph  12 mph  0.00"  11%  43%  14°F  33°F  30.09"
Fri 02:00 PM  73.9°F  57°F  calm  5 mph  12 mph  0.00"  11%  43%  14°F  34°F  30.11"
Fri 01:00 PM  73.4°F  57°F  2 mph E  6 mph  12 mph  0.00"  12%  42%  16°F  33°F  30.13"
Fri 12:00 PM  72.3°F  56°F  calm  6 mph  12 mph  0.00"  11%  43%  13°F  34°F  30.16"
Fri 11:00 AM  71.4°F  56°F  calm  5 mph  12 mph  0.00"  12%  44%  14°F  33°F  30.20"
Fri 10:00 AM  71.6°F  54°F  calm  5 mph  9 mph  0.00"  10%  46%  10°F  33°F  30.21"
Fri 09:00 AM  66.7°F  52°F  calm  3 mph  12 mph  0.00"  14%  47%  14°F  32°F  30.22"
Fri 08:00 AM  63.9°F  51°F  calm  2 mph  1 mph  0.00"  16%  49%  15°F  31°F  30.21"
Fri 07:00 AM  61.0°F  48°F  calm  3 mph  10 mph  0.00"  15%  50%  11°F  29°F  30.19"
Fri 06:00 AM  60.4°F  48°F  calm  3 mph  none  0.00"  16%  50%  12°F  29°F  30.18"
Fri 05:00 AM  61.5°F  48°F  calm  3 mph  1 mph  0.00"  16%  51%  13°F  30°F  30.15"
Fri 04:00 AM  63.9°F  48°F  calm  3 mph  9 mph  0.00"  16%  51%  15°F  30°F  30.16"
Fri 03:00 AM  66.0°F  48°F  calm  3 mph  17 mph  0.00"  12%  51%  10°F  30°F  30.16"
Fri 02:00 AM  65.3°F  48°F  2 mph N  3 mph  14 mph  0.00"  14%  52%  13°F  31°F  30.18"
Fri 01:00 AM  63.3°F  48°F  calm  3 mph  3 mph  0.00"  17%  52%  16°F  31°F  30.18"
Fri 12:00 AM  63.0°F  48°F  calm  3 mph  3 mph  0.00"  17%  52%  16°F  31°F  30.19"
Thu 11:00 PM  63.7°F  49°F  calm  3 mph  13 mph  0.00"  16%  52%  15°F  31°F  30.20"
Thu 10:00 PM  63.1°F  49°F  3 mph NW  3 mph  12 mph  0.00"  16%  52%  14°F  32°F  30.19"
Thu 09:00 PM  63.0°F  49°F  calm  3 mph  8 mph  0.00"  15%  52%  13°F  32°F  30.20"
Thu 08:00 PM  63.0°F  50°F  calm  3 mph  1 mph  0.00"  15%  52%  13°F  32°F  30.20"
Thu 07:00 PM  64.2°F  50°F  calm  3 mph  1 mph  0.00"  13%  51%  10°F  32°F  30.19"
Thu 06:00 PM  66.4°F  51°F  calm  3 mph  10 mph  0.00"  10%  51%  6°F  33°F  30.18"
Thu 05:00 PM  67.5°F  52°F  calm  3 mph  13 mph  0.00"  14%  49%  14°F  33°F  30.17"
Thu 04:00 PM  70.3°F  55°F  calm  4 mph  9 mph  0.00"  16%  46%  20°F  34°F  30.16"
Thu 03:00 PM  71.4°F  56°F  3 mph E  5 mph  20 mph  0.00"  16%  44%  21°F  34°F  30.15"
Thu 02:00 PM  71.1°F  57°F  1 mph NE  5 mph  20 mph  0.00"  17%  44%  22°F  34°F  30.15"
Thu 01:00 PM  71.2°F  57°F  calm  6 mph  17 mph  0.00"  18%  43%  24°F  34°F  30.16"
Thu 12:00 PM  71.4°F  56°F  calm  5 mph  14 mph  0.00"  18%  45%  24°F  34°F  30.18"

  1. Current weather data. No green row appears if the current weather data is also the high or low for the current day.
  2. High temperature for the current day.
  3. Low temperature for the current day.

The Beaumont, California weather pages are a service of WeatherCurrents. Cherry Valley is located in northern Riverside County, California, a community of the northern part of Beaumont, along the Interstate 10 highway, in the San Gorgonio pass area, between the communities of Calimesa, Banning.
Copyright ©2021  WeatherCurrents. All rights reserved. - Submit questions and comments - Privacy Policy

This page automatically refreshes every 10 minutes.